Decoded Metar for LFKJ (AJACCIO in CORSE ISL.) (IATA:AJA) | Meteo·Mobile Aviation Weather
aviador You're here:

LFKJ Decoded Metar

AJACCIO in CORSE ISL.
Report Time2018-08-21 16:00:00
UTC Time2018-08-21 16:07:16
Flight Rules vfr VFR
Wind260° at 05 kt
W.Decomp.*RWY 20: 2.6 kt HW 4.3 kt RCW
W.Rank260° ranks 14
Current wind is below 260° avg. (8.0)
Visibility9999 m
Phenomena:N/A
Clouds:N/A
Expected CloudBase > 2,000 ft AGL from Temp-Dew spread
CeilingNone
Temp28°C (ISA +13)
Dew Point23°C (74% RH)
Heat Index31.2°C
QNH1013 hPa
Density Alt1,903 ft
Elevation30 ft
Report Wrong Elevation
Raw Report
METAR LFKJ 211600Z AUTO 26005KT CAVOK 28/23 Q1013 NOSIG=

Extra information for LFKJ:More info

Metar Taf Metar & Taf Last 4 Metars F.Rules Stats Wind Profile Meteogram Temp Stats Airport Information Weather charts Add Link Nearby VenuesMetar ALERT Operation Metar Decoded Social comments